sensor_id;sensor_type;location;lat;lon;timestamp;P1;durP1;ratioP1;P2;durP2;ratioP2
6941;SDS011;3510;43.200;27.920;2023-04-25T00:02:18;10.27;;;5.33;;
6941;SDS011;3510;43.200;27.920;2023-04-25T00:04:45;6.67;;;5.53;;
6941;SDS011;3510;43.200;27.920;2023-04-25T00:07:14;12.57;;;5.87;;
6941;SDS011;3510;43.200;27.920;2023-04-25T00:09:41;12.20;;;5.57;;
6941;SDS011;3510;43.200;27.920;2023-04-25T00:12:09;12.60;;;5.80;;
6941;SDS011;3510;43.200;27.920;2023-04-25T00:14:36;8.53;;;5.93;;
6941;SDS011;3510;43.200;27.920;2023-04-25T00:17:04;12.10;;;5.47;;
6941;SDS011;3510;43.200;27.920;2023-04-25T00:19:31;13.57;;;5.83;;
6941;SDS011;3510;43.200;27.920;2023-04-25T00:22:00;17.27;;;6.70;;
6941;SDS011;3510;43.200;27.920;2023-04-25T00:24:27;17.67;;;6.10;;
6941;SDS011;3510;43.200;27.920;2023-04-25T00:26:56;19.37;;;6.00;;
6941;SDS011;3510;43.200;27.920;2023-04-25T00:29:24;11.10;;;6.13;;
6941;SDS011;3510;43.200;27.920;2023-04-25T00:31:50;16.57;;;6.80;;
6941;SDS011;3510;43.200;27.920;2023-04-25T00:34:17;16.90;;;6.30;;
6941;SDS011;3510;43.200;27.920;2023-04-25T00:36:44;19.87;;;6.23;;
6941;SDS011;3510;43.200;27.920;2023-04-25T00:39:12;13.63;;;6.20;;
6941;SDS011;3510;43.200;27.920;2023-04-25T00:41:38;23.07;;;7.13;;
6941;SDS011;3510;43.200;27.920;2023-04-25T00:44:06;19.07;;;6.80;;
6941;SDS011;3510;43.200;27.920;2023-04-25T00:46:37;16.00;;;5.83;;
6941;SDS011;3510;43.200;27.920;2023-04-25T00:49:05;11.00;;;5.60;;
6941;SDS011;3510;43.200;27.920;2023-04-25T00:51:32;13.80;;;5.93;;
6941;SDS011;3510;43.200;27.920;2023-04-25T00:54:00;16.23;;;6.27;;
6941;SDS011;3510;43.200;27.920;2023-04-25T00:56:27;21.97;;;7.40;;
6941;SDS011;3510;43.200;27.920;2023-04-25T00:58:54;14.37;;;6.30;;
6941;SDS011;3510;43.200;27.920;2023-04-25T01:01:36;16.13;;;5.80;;
6941;SDS011;3510;43.200;27.920;2023-04-25T01:04:04;11.70;;;5.70;;
6941;SDS011;3510;43.200;27.920;2023-04-25T01:06:45;20.50;;;6.40;;
6941;SDS011;3510;43.200;27.920;2023-04-25T01:09:26;12.90;;;6.40;;
6941;SDS011;3510;43.200;27.920;2023-04-25T01:11:52;20.47;;;6.63;;
6941;SDS011;3510;43.200;27.920;2023-04-25T01:14:19;26.30;;;6.90;;
6941;SDS011;3510;43.200;27.920;2023-04-25T01:19:43;25.80;;;6.53;;
6941;SDS011;3510;43.200;27.920;2023-04-25T01:22:12;28.77;;;6.50;;
6941;SDS011;3510;43.200;27.920;2023-04-25T01:24:39;14.37;;;6.33;;
6941;SDS011;3510;43.200;27.920;2023-04-25T01:27:06;18.90;;;6.60;;
6941;SDS011;3510;43.200;27.920;2023-04-25T01:29:34;21.90;;;6.80;;
6941;SDS011;3510;43.200;27.920;2023-04-25T01:32:01;15.97;;;6.73;;
6941;SDS011;3510;43.200;27.920;2023-04-25T01:34:29;13.73;;;5.43;;
6941;SDS011;3510;43.200;27.920;2023-04-25T01:37:10;12.83;;;6.13;;
6941;SDS011;3510;43.200;27.920;2023-04-25T01:46:13;13.67;;;6.47;;
6941;SDS011;3510;43.200;27.920;2023-04-25T01:48:40;13.70;;;7.23;;
6941;SDS011;3510;43.200;27.920;2023-04-25T01:51:08;14.83;;;5.67;;
6941;SDS011;3510;43.200;27.920;2023-04-25T01:53:36;19.97;;;5.93;;
6941;SDS011;3510;43.200;27.920;2023-04-25T01:56:03;15.23;;;7.13;;
6941;SDS011;3510;43.200;27.920;2023-04-25T01:58:31;19.37;;;6.23;;
6941;SDS011;3510;43.200;27.920;2023-04-25T02:00:57;14.40;;;6.90;;
6941;SDS011;3510;43.200;27.920;2023-04-25T02:03:25;21.87;;;6.07;;
6941;SDS011;3510;43.200;27.920;2023-04-25T02:05:52;15.10;;;7.37;;
6941;SDS011;3510;43.200;27.920;2023-04-25T02:08:19;12.23;;;6.50;;
6941;SDS011;3510;43.200;27.920;2023-04-25T02:10:46;19.20;;;6.00;;
6941;SDS011;3510;43.200;27.920;2023-04-25T02:13:12;15.17;;;6.33;;
6941;SDS011;3510;43.200;27.920;2023-04-25T02:15:39;22.13;;;6.37;;
6941;SDS011;3510;43.200;27.920;2023-04-25T02:18:07;16.40;;;6.87;;
6941;SDS011;3510;43.200;27.920;2023-04-25T02:20:36;13.70;;;5.80;;
6941;SDS011;3510;43.200;27.920;2023-04-25T02:23:03;16.03;;;7.00;;
6941;SDS011;3510;43.200;27.920;2023-04-25T02:25:30;17.47;;;6.40;;
6941;SDS011;3510;43.200;27.920;2023-04-25T02:27:57;13.77;;;6.10;;
6941;SDS011;3510;43.200;27.920;2023-04-25T02:30:26;14.77;;;6.90;;
6941;SDS011;3510;43.200;27.920;2023-04-25T02:32:53;11.10;;;6.13;;
6941;SDS011;3510;43.200;27.920;2023-04-25T02:35:20;15.70;;;6.70;;
6941;SDS011;3510;43.200;27.920;2023-04-25T02:37:48;19.03;;;6.20;;
6941;SDS011;3510;43.200;27.920;2023-04-25T02:40:15;24.63;;;7.47;;
6941;SDS011;3510;43.200;27.920;2023-04-25T02:42:42;19.53;;;7.17;;
6941;SDS011;3510;43.200;27.920;2023-04-25T02:45:10;23.13;;;7.27;;
6941;SDS011;3510;43.200;27.920;2023-04-25T02:47:38;13.43;;;7.20;;
6941;SDS011;3510;43.200;27.920;2023-04-25T02:50:05;17.83;;;6.37;;
6941;SDS011;3510;43.200;27.920;2023-04-25T02:52:32;17.93;;;6.47;;
6941;SDS011;3510;43.200;27.920;2023-04-25T02:55:00;15.60;;;6.60;;
6941;SDS011;3510;43.200;27.920;2023-04-25T02:57:27;23.67;;;7.00;;
6941;SDS011;3510;43.200;27.920;2023-04-25T02:59:54;14.87;;;6.87;;
6941;SDS011;3510;43.200;27.920;2023-04-25T03:02:21;20.27;;;7.43;;
6941;SDS011;3510;43.200;27.920;2023-04-25T03:04:49;22.30;;;7.40;;
6941;SDS011;3510;43.200;27.920;2023-04-25T03:07:17;17.67;;;6.47;;
6941;SDS011;3510;43.200;27.920;2023-04-25T03:09:43;26.63;;;6.97;;
6941;SDS011;3510;43.200;27.920;2023-04-25T03:12:11;20.70;;;7.97;;
6941;SDS011;3510;43.200;27.920;2023-04-25T03:14:39;19.67;;;7.23;;
6941;SDS011;3510;43.200;27.920;2023-04-25T03:17:06;28.13;;;7.40;;
6941;SDS011;3510;43.200;27.920;2023-04-25T03:19:33;18.07;;;7.40;;
6941;SDS011;3510;43.200;27.920;2023-04-25T03:22:00;17.80;;;6.87;;
6941;SDS011;3510;43.200;27.920;2023-04-25T03:24:26;18.53;;;6.87;;
6941;SDS011;3510;43.200;27.920;2023-04-25T03:26:54;19.07;;;7.73;;
6941;SDS011;3510;43.200;27.920;2023-04-25T03:29:23;15.97;;;6.53;;
6941;SDS011;3510;43.200;27.920;2023-04-25T03:31:52;19.37;;;7.23;;
6941;SDS011;3510;43.200;27.920;2023-04-25T03:34:20;23.13;;;7.83;;
6941;SDS011;3510;43.200;27.920;2023-04-25T03:36:47;26.27;;;7.27;;
6941;SDS011;3510;43.200;27.920;2023-04-25T03:39:14;21.90;;;8.10;;
6941;SDS011;3510;43.200;27.920;2023-04-25T03:41:41;22.30;;;7.20;;
6941;SDS011;3510;43.200;27.920;2023-04-25T03:44:20;18.83;;;8.20;;
6941;SDS011;3510;43.200;27.920;2023-04-25T03:46:52;20.57;;;7.43;;
6941;SDS011;3510;43.200;27.920;2023-04-25T03:49:19;18.10;;;7.47;;
6941;SDS011;3510;43.200;27.920;2023-04-25T03:51:46;12.93;;;6.80;;
6941;SDS011;3510;43.200;27.920;2023-04-25T03:54:13;15.03;;;7.73;;
6941;SDS011;3510;43.200;27.920;2023-04-25T03:56:41;12.13;;;7.20;;
6941;SDS011;3510;43.200;27.920;2023-04-25T03:59:07;23.23;;;7.67;;
6941;SDS011;3510;43.200;27.920;2023-04-25T04:01:34;11.93;;;6.93;;
6941;SDS011;3510;43.200;27.920;2023-04-25T04:04:02;20.23;;;8.07;;
6941;SDS011;3510;43.200;27.920;2023-04-25T04:06:29;16.80;;;7.13;;
6941;SDS011;3510;43.200;27.920;2023-04-25T04:08:58;23.37;;;8.33;;
6941;SDS011;3510;43.200;27.920;2023-04-25T04:11:25;12.97;;;7.30;;
6941;SDS011;3510;43.200;27.920;2023-04-25T04:13:53;19.57;;;7.43;;
6941;SDS011;3510;43.200;27.920;2023-04-25T04:16:20;24.50;;;8.07;;
6941;SDS011;3510;43.200;27.920;2023-04-25T04:18:47;13.57;;;8.33;;
6941;SDS011;3510;43.200;27.920;2023-04-25T04:21:16;15.57;;;7.83;;
6941;SDS011;3510;43.200;27.920;2023-04-25T04:23:43;16.30;;;8.23;;
6941;SDS011;3510;43.200;27.920;2023-04-25T04:26:11;29.70;;;9.33;;
6941;SDS011;3510;43.200;27.920;2023-04-25T04:28:38;16.67;;;8.73;;
6941;SDS011;3510;43.200;27.920;2023-04-25T04:31:05;24.50;;;9.27;;
6941;SDS011;3510;43.200;27.920;2023-04-25T04:33:32;18.67;;;7.90;;
6941;SDS011;3510;43.200;27.920;2023-04-25T04:36:00;20.07;;;8.97;;
6941;SDS011;3510;43.200;27.920;2023-04-25T04:38:29;20.47;;;7.93;;
6941;SDS011;3510;43.200;27.920;2023-04-25T04:40:57;17.93;;;9.37;;
6941;SDS011;3510;43.200;27.920;2023-04-25T04:43:24;21.97;;;8.27;;
6941;SDS011;3510;43.200;27.920;2023-04-25T04:45:51;17.60;;;8.73;;
6941;SDS011;3510;43.200;27.920;2023-04-25T04:48:17;14.43;;;7.67;;
6941;SDS011;3510;43.200;27.920;2023-04-25T04:50:46;13.83;;;7.93;;
6941;SDS011;3510;43.200;27.920;2023-04-25T04:53:13;27.27;;;9.17;;
6941;SDS011;3510;43.200;27.920;2023-04-25T04:55:42;17.10;;;7.57;;
6941;SDS011;3510;43.200;27.920;2023-04-25T04:58:09;21.00;;;8.30;;
6941;SDS011;3510;43.200;27.920;2023-04-25T05:00:36;19.00;;;8.47;;
6941;SDS011;3510;43.200;27.920;2023-04-25T05:03:03;18.80;;;8.20;;
6941;SDS011;3510;43.200;27.920;2023-04-25T05:05:31;12.87;;;7.47;;
6941;SDS011;3510;43.200;27.920;2023-04-25T05:07:57;19.73;;;7.13;;
6941;SDS011;3510;43.200;27.920;2023-04-25T05:10:38;21.77;;;6.87;;
6941;SDS011;3510;43.200;27.920;2023-04-25T05:13:08;20.33;;;7.00;;
6941;SDS011;3510;43.200;27.920;2023-04-25T05:15:34;19.73;;;8.17;;
6941;SDS011;3510;43.200;27.920;2023-04-25T05:18:01;12.37;;;7.13;;
6941;SDS011;3510;43.200;27.920;2023-04-25T05:20:28;22.50;;;7.80;;
6941;SDS011;3510;43.200;27.920;2023-04-25T05:22:55;16.97;;;7.90;;
6941;SDS011;3510;43.200;27.920;2023-04-25T05:25:22;14.20;;;7.10;;
6941;SDS011;3510;43.200;27.920;2023-04-25T05:27:49;22.47;;;7.73;;
6941;SDS011;3510;43.200;27.920;2023-04-25T05:30:18;14.83;;;7.33;;
6941;SDS011;3510;43.200;27.920;2023-04-25T05:32:45;15.83;;;7.60;;
6941;SDS011;3510;43.200;27.920;2023-04-25T05:35:12;18.97;;;6.83;;
6941;SDS011;3510;43.200;27.920;2023-04-25T05:37:39;11.33;;;6.37;;
6941;SDS011;3510;43.200;27.920;2023-04-25T05:40:06;37.03;;;8.73;;
6941;SDS011;3510;43.200;27.920;2023-04-25T05:42:34;14.17;;;6.53;;
6941;SDS011;3510;43.200;27.920;2023-04-25T05:45:02;13.23;;;6.93;;
6941;SDS011;3510;43.200;27.920;2023-04-25T05:47:30;9.40;;;6.10;;
6941;SDS011;3510;43.200;27.920;2023-04-25T05:49:57;14.10;;;6.80;;
6941;SDS011;3510;43.200;27.920;2023-04-25T05:52:24;11.03;;;6.23;;
6941;SDS011;3510;43.200;27.920;2023-04-25T05:54:51;16.53;;;7.53;;
6941;SDS011;3510;43.200;27.920;2023-04-25T05:57:19;13.40;;;6.73;;
6941;SDS011;3510;43.200;27.920;2023-04-25T05:59:47;15.60;;;7.50;;
6941;SDS011;3510;43.200;27.920;2023-04-25T06:02:14;25.40;;;6.90;;
6941;SDS011;3510;43.200;27.920;2023-04-25T06:04:42;12.23;;;6.82;;
6941;SDS011;3510;43.200;27.920;2023-04-25T06:07:09;14.95;;;7.03;;
6941;SDS011;3510;43.200;27.920;2023-04-25T06:09:36;16.08;;;7.30;;
6941;SDS011;3510;43.200;27.920;2023-04-25T06:12:05;11.82;;;6.63;;
6941;SDS011;3510;43.200;27.920;2023-04-25T06:14:33;16.13;;;7.53;;
6941;SDS011;3510;43.200;27.920;2023-04-25T06:17:00;15.30;;;7.75;;
6941;SDS011;3510;43.200;27.920;2023-04-25T06:19:33;10.35;;;6.50;;
6941;SDS011;3510;43.200;27.920;2023-04-25T06:22:01;16.15;;;7.05;;
6941;SDS011;3510;43.200;27.920;2023-04-25T06:24:28;16.15;;;6.82;;
6941;SDS011;3510;43.200;27.920;2023-04-25T06:26:55;22.73;;;7.18;;
6941;SDS011;3510;43.200;27.920;2023-04-25T06:29:22;13.70;;;6.32;;
6941;SDS011;3510;43.200;27.920;2023-04-25T06:31:49;18.42;;;6.55;;
6941;SDS011;3510;43.200;27.920;2023-04-25T06:34:16;18.80;;;7.47;;
6941;SDS011;3510;43.200;27.920;2023-04-25T06:36:42;15.75;;;6.78;;
6941;SDS011;3510;43.200;27.920;2023-04-25T06:39:11;17.42;;;8.60;;
6941;SDS011;3510;43.200;27.920;2023-04-25T06:41:38;11.88;;;6.32;;
6941;SDS011;3510;43.200;27.920;2023-04-25T06:44:06;7.82;;;5.82;;
6941;SDS011;3510;43.200;27.920;2023-04-25T06:46:33;13.82;;;6.57;;
6941;SDS011;3510;43.200;27.920;2023-04-25T06:49:00;12.50;;;6.43;;
6941;SDS011;3510;43.200;27.920;2023-04-25T06:51:26;7.72;;;6.03;;
6941;SDS011;3510;43.200;27.920;2023-04-25T06:53:55;11.35;;;7.90;;
6941;SDS011;3510;43.200;27.920;2023-04-25T06:56:24;14.40;;;7.82;;
6941;SDS011;3510;43.200;27.920;2023-04-25T06:58:50;13.65;;;6.80;;
6941;SDS011;3510;43.200;27.920;2023-04-25T07:01:17;13.60;;;7.35;;
6941;SDS011;3510;43.200;27.920;2023-04-25T07:03:44;12.05;;;6.72;;
6941;SDS011;3510;43.200;27.920;2023-04-25T07:06:11;10.10;;;6.65;;
6941;SDS011;3510;43.200;27.920;2023-04-25T07:08:37;14.20;;;7.30;;
6941;SDS011;3510;43.200;27.920;2023-04-25T07:11:05;12.52;;;6.35;;
6941;SDS011;3510;43.200;27.920;2023-04-25T07:13:33;11.85;;;6.93;;
6941;SDS011;3510;43.200;27.920;2023-04-25T07:16:00;15.93;;;8.23;;
6941;SDS011;3510;43.200;27.920;2023-04-25T07:18:28;12.43;;;6.60;;
6941;SDS011;3510;43.200;27.920;2023-04-25T07:20:55;13.40;;;7.40;;
6941;SDS011;3510;43.200;27.920;2023-04-25T07:23:22;10.23;;;6.73;;
6941;SDS011;3510;43.200;27.920;2023-04-25T07:25:49;11.82;;;6.85;;
6941;SDS011;3510;43.200;27.920;2023-04-25T07:28:15;10.27;;;7.03;;
6941;SDS011;3510;43.200;27.920;2023-04-25T07:30:44;14.60;;;7.15;;
6941;SDS011;3510;43.200;27.920;2023-04-25T07:33:11;12.00;;;7.95;;
6941;SDS011;3510;43.200;27.920;2023-04-25T07:35:38;14.93;;;7.40;;
6941;SDS011;3510;43.200;27.920;2023-04-25T07:38:05;10.23;;;7.50;;
6941;SDS011;3510;43.200;27.920;2023-04-25T07:40:33;10.45;;;7.43;;
6941;SDS011;3510;43.200;27.920;2023-04-25T07:43:00;10.98;;;7.57;;
6941;SDS011;3510;43.200;27.920;2023-04-25T07:45:27;12.43;;;7.85;;
6941;SDS011;3510;43.200;27.920;2023-04-25T07:47:55;15.05;;;7.75;;
6941;SDS011;3510;43.200;27.920;2023-04-25T07:50:22;9.65;;;7.68;;
6941;SDS011;3510;43.200;27.920;2023-04-25T07:52:50;16.02;;;8.93;;
6941;SDS011;3510;43.200;27.920;2023-04-25T07:55:16;13.38;;;8.43;;
6941;SDS011;3510;43.200;27.920;2023-04-25T07:57:43;11.73;;;8.40;;
6941;SDS011;3510;43.200;27.920;2023-04-25T08:00:10;11.02;;;8.13;;
6941;SDS011;3510;43.200;27.920;2023-04-25T08:02:37;14.10;;;8.05;;
6941;SDS011;3510;43.200;27.920;2023-04-25T08:05:06;15.48;;;7.82;;
6941;SDS011;3510;43.200;27.920;2023-04-25T08:07:36;12.23;;;8.98;;
6941;SDS011;3510;43.200;27.920;2023-04-25T08:10:03;16.35;;;8.43;;
6941;SDS011;3510;43.200;27.920;2023-04-25T08:12:31;8.55;;;7.63;;
6941;SDS011;3510;43.200;27.920;2023-04-25T08:14:58;17.15;;;8.55;;
6941;SDS011;3510;43.200;27.920;2023-04-25T08:17:24;16.85;;;9.15;;
6941;SDS011;3510;43.200;27.920;2023-04-25T08:19:51;12.30;;;8.20;;
6941;SDS011;3510;43.200;27.920;2023-04-25T08:22:22;10.15;;;8.00;;
6941;SDS011;3510;43.200;27.920;2023-04-25T08:24:48;12.02;;;7.72;;
6941;SDS011;3510;43.200;27.920;2023-04-25T08:27:16;11.80;;;7.78;;
6941;SDS011;3510;43.200;27.920;2023-04-25T08:29:44;11.90;;;7.57;;
6941;SDS011;3510;43.200;27.920;2023-04-25T08:32:11;8.80;;;8.00;;
6941;SDS011;3510;43.200;27.920;2023-04-25T08:34:38;8.52;;;7.40;;
6941;SDS011;3510;43.200;27.920;2023-04-25T08:42:31;18.58;;;8.52;;
6941;SDS011;3510;43.200;27.920;2023-04-25T08:45:01;13.85;;;8.98;;
6941;SDS011;3510;43.200;27.920;2023-04-25T08:47:41;14.90;;;8.43;;
6941;SDS011;3510;43.200;27.920;2023-04-25T08:50:23;15.85;;;9.77;;
6941;SDS011;3510;43.200;27.920;2023-04-25T08:52:52;15.20;;;7.80;;
6941;SDS011;3510;43.200;27.920;2023-04-25T08:55:34;17.50;;;7.43;;
6941;SDS011;3510;43.200;27.920;2023-04-25T08:58:07;17.08;;;7.90;;
6941;SDS011;3510;43.200;27.920;2023-04-25T09:00:46;7.75;;;6.43;;
6941;SDS011;3510;43.200;27.920;2023-04-25T09:03:26;7.40;;;6.60;;
6941;SDS011;3510;43.200;27.920;2023-04-25T09:05:53;10.23;;;6.80;;
6941;SDS011;3510;43.200;27.920;2023-04-25T09:08:22;7.40;;;6.78;;
6941;SDS011;3510;43.200;27.920;2023-04-25T09:10:51;12.48;;;7.00;;
6941;SDS011;3510;43.200;27.920;2023-04-25T09:13:25;13.63;;;7.30;;
6941;SDS011;3510;43.200;27.920;2023-04-25T09:18:29;11.45;;;7.28;;
6941;SDS011;3510;43.200;27.920;2023-04-25T09:21:05;8.23;;;6.50;;
6941;SDS011;3510;43.200;27.920;2023-04-25T09:37:58;9.98;;;6.72;;
6941;SDS011;3510;43.200;27.920;2023-04-25T09:40:39;9.27;;;5.63;;
6941;SDS011;3510;43.200;27.920;2023-04-25T09:43:08;7.55;;;5.63;;
6941;SDS011;3510;43.200;27.920;2023-04-25T09:45:41;7.25;;;6.60;;
6941;SDS011;3510;43.200;27.920;2023-04-25T09:48:11;10.48;;;5.63;;
6941;SDS011;3510;43.200;27.920;2023-04-25T09:50:39;7.53;;;6.13;;
6941;SDS011;3510;43.200;27.920;2023-04-25T09:55:53;6.22;;;5.63;;
6941;SDS011;3510;43.200;27.920;2023-04-25T09:58:37;9.98;;;5.50;;
6941;SDS011;3510;43.200;27.920;2023-04-25T10:01:12;7.72;;;5.30;;
6941;SDS011;3510;43.200;27.920;2023-04-25T10:03:41;8.80;;;4.80;;
6941;SDS011;3510;43.200;27.920;2023-04-25T10:06:11;9.02;;;5.72;;
6941;SDS011;3510;43.200;27.920;2023-04-25T10:08:55;10.73;;;6.50;;
6941;SDS011;3510;43.200;27.920;2023-04-25T10:11:22;5.97;;;5.40;;
6941;SDS011;3510;43.200;27.920;2023-04-25T10:13:52;8.32;;;5.03;;
6941;SDS011;3510;43.200;27.920;2023-04-25T10:17:01;11.25;;;5.35;;
6941;SDS011;3510;43.200;27.920;2023-04-25T10:19:42;7.75;;;4.85;;
6941;SDS011;3510;43.200;27.920;2023-04-25T10:22:31;6.13;;;5.07;;
6941;SDS011;3510;43.200;27.920;2023-04-25T10:25:15;8.20;;;5.32;;
6941;SDS011;3510;43.200;27.920;2023-04-25T10:27:57;9.85;;;5.28;;
6941;SDS011;3510;43.200;27.920;2023-04-25T10:30:27;8.23;;;4.85;;
6941;SDS011;3510;43.200;27.920;2023-04-25T10:32:56;9.80;;;6.18;;
6941;SDS011;3510;43.200;27.920;2023-04-25T10:35:25;7.38;;;5.00;;
6941;SDS011;3510;43.200;27.920;2023-04-25T10:37:58;7.45;;;6.00;;
6941;SDS011;3510;43.200;27.920;2023-04-25T10:40:30;6.72;;;5.20;;
6941;SDS011;3510;43.200;27.920;2023-04-25T10:45:51;5.55;;;4.43;;
6941;SDS011;3510;43.200;27.920;2023-04-25T10:48:28;5.28;;;4.78;;
6941;SDS011;3510;43.200;27.920;2023-04-25T10:51:08;10.73;;;5.07;;
6941;SDS011;3510;43.200;27.920;2023-04-25T10:53:36;8.57;;;5.10;;
6941;SDS011;3510;43.200;27.920;2023-04-25T10:56:17;8.80;;;5.18;;
6941;SDS011;3510;43.200;27.920;2023-04-25T11:01:36;6.68;;;6.07;;
6941;SDS011;3510;43.200;27.920;2023-04-25T11:04:07;10.38;;;6.28;;
6941;SDS011;3510;43.200;27.920;2023-04-25T11:06:51;10.95;;;5.88;;
6941;SDS011;3510;43.200;27.920;2023-04-25T11:09:29;6.00;;;5.40;;
6941;SDS011;3510;43.200;27.920;2023-04-25T11:11:58;9.95;;;6.13;;
6941;SDS011;3510;43.200;27.920;2023-04-25T11:14:28;9.15;;;6.63;;
6941;SDS011;3510;43.200;27.920;2023-04-25T11:19:35;20.65;;;7.40;;
6941;SDS011;3510;43.200;27.920;2023-04-25T11:22:22;14.55;;;6.97;;
6941;SDS011;3510;43.200;27.920;2023-04-25T11:24:52;13.63;;;5.68;;
6941;SDS011;3510;43.200;27.920;2023-04-25T11:27:22;11.60;;;5.70;;
6941;SDS011;3510;43.200;27.920;2023-04-25T11:29:51;6.38;;;5.47;;
6941;SDS011;3510;43.200;27.920;2023-04-25T12:04:29;6.75;;;4.15;;
6941;SDS011;3510;43.200;27.920;2023-04-25T12:07:11;4.50;;;4.13;;
6941;SDS011;3510;43.200;27.920;2023-04-25T12:48:00;7.35;;;5.85;;
6941;SDS011;3510;43.200;27.920;2023-04-25T12:55:51;8.30;;;5.60;;
6941;SDS011;3510;43.200;27.920;2023-04-25T12:58:29;8.13;;;6.25;;
6941;SDS011;3510;43.200;27.920;2023-04-25T13:01:00;8.88;;;6.72;;
6941;SDS011;3510;43.200;27.920;2023-04-25T13:03:27;9.43;;;7.45;;
6941;SDS011;3510;43.200;27.920;2023-04-25T13:05:57;9.38;;;5.45;;
6941;SDS011;3510;43.200;27.920;2023-04-25T13:08:24;9.02;;;5.65;;
6941;SDS011;3510;43.200;27.920;2023-04-25T13:10:51;7.00;;;5.50;;
6941;SDS011;3510;43.200;27.920;2023-04-25T13:16:09;10.60;;;7.38;;
6941;SDS011;3510;43.200;27.920;2023-04-25T13:18:47;14.05;;;7.25;;
6941;SDS011;3510;43.200;27.920;2023-04-25T13:29:14;7.60;;;6.53;;
6941;SDS011;3510;43.200;27.920;2023-04-25T14:03:37;13.65;;;9.35;;
6941;SDS011;3510;43.200;27.920;2023-04-25T14:06:05;16.55;;;10.00;;
6941;SDS011;3510;43.200;27.920;2023-04-25T14:08:46;20.83;;;11.05;;
6941;SDS011;3510;43.200;27.920;2023-04-25T14:11:39;14.95;;;10.23;;
6941;SDS011;3510;43.200;27.920;2023-04-25T14:14:26;18.05;;;9.77;;
6941;SDS011;3510;43.200;27.920;2023-04-25T14:19:44;13.70;;;10.35;;
6941;SDS011;3510;43.200;27.920;2023-04-25T14:24:58;13.70;;;10.77;;
6941;SDS011;3510;43.200;27.920;2023-04-25T14:27:41;15.50;;;10.80;;
6941;SDS011;3510;43.200;27.920;2023-04-25T14:30:22;17.55;;;10.27;;
6941;SDS011;3510;43.200;27.920;2023-04-25T14:33:03;11.27;;;9.73;;
6941;SDS011;3510;43.200;27.920;2023-04-25T14:35:46;18.20;;;9.70;;
6941;SDS011;3510;43.200;27.920;2023-04-25T14:38:16;16.15;;;10.82;;
6941;SDS011;3510;43.200;27.920;2023-04-25T14:40:50;10.85;;;9.77;;
6941;SDS011;3510;43.200;27.920;2023-04-25T14:43:31;12.87;;;10.00;;
6941;SDS011;3510;43.200;27.920;2023-04-25T15:04:16;5.40;;;4.90;;
6941;SDS011;3510;43.200;27.920;2023-04-25T15:06:44;7.10;;;3.70;;
6941;SDS011;3510;43.200;27.920;2023-04-25T15:09:25;5.63;;;3.47;;
6941;SDS011;3510;43.200;27.920;2023-04-25T15:14:41;4.23;;;3.83;;
6941;SDS011;3510;43.200;27.920;2023-04-25T15:17:22;3.30;;;3.10;;
6941;SDS011;3510;43.200;27.920;2023-04-25T15:25:20;4.23;;;2.10;;
6941;SDS011;3510;43.200;27.920;2023-04-25T15:30:28;2.77;;;2.37;;
6941;SDS011;3510;43.200;27.920;2023-04-25T15:33:10;2.67;;;2.30;;
6941;SDS011;3510;43.200;27.920;2023-04-25T15:35:37;2.60;;;2.40;;
6941;SDS011;3510;43.200;27.920;2023-04-25T15:38:04;3.73;;;2.67;;
6941;SDS011;3510;43.200;27.920;2023-04-25T15:40:32;5.70;;;2.90;;
6941;SDS011;3510;43.200;27.920;2023-04-25T15:45:34;4.63;;;4.23;;
6941;SDS011;3510;43.200;27.920;2023-04-25T15:48:01;3.13;;;2.93;;
6941;SDS011;3510;43.200;27.920;2023-04-25T15:50:28;4.17;;;3.87;;
6941;SDS011;3510;43.200;27.920;2023-04-25T15:53:09;7.23;;;4.70;;
6941;SDS011;3510;43.200;27.920;2023-04-25T16:32:14;15.47;;;5.10;;
6941;SDS011;3510;43.200;27.920;2023-04-25T16:34:41;7.87;;;5.17;;
6941;SDS011;3510;43.200;27.920;2023-04-25T16:37:08;6.93;;;4.63;;
6941;SDS011;3510;43.200;27.920;2023-04-25T16:39:35;5.80;;;5.30;;
6941;SDS011;3510;43.200;27.920;2023-04-25T16:42:06;10.20;;;7.10;;
6941;SDS011;3510;43.200;27.920;2023-04-25T16:44:33;13.97;;;7.73;;
6941;SDS011;3510;43.200;27.920;2023-04-25T16:47:00;9.13;;;6.77;;
6941;SDS011;3510;43.200;27.920;2023-04-25T16:49:29;7.23;;;6.57;;
6941;SDS011;3510;43.200;27.920;2023-04-25T16:51:56;6.67;;;6.07;;
6941;SDS011;3510;43.200;27.920;2023-04-25T16:54:23;8.87;;;6.30;;
6941;SDS011;3510;43.200;27.920;2023-04-25T16:56:51;6.93;;;6.23;;
6941;SDS011;3510;43.200;27.920;2023-04-25T16:59:18;8.07;;;5.60;;
6941;SDS011;3510;43.200;27.920;2023-04-25T17:01:45;6.77;;;5.20;;
6941;SDS011;3510;43.200;27.920;2023-04-25T17:04:12;6.50;;;4.97;;
6941;SDS011;3510;43.200;27.920;2023-04-25T17:06:41;10.13;;;6.20;;
6941;SDS011;3510;43.200;27.920;2023-04-25T17:09:08;6.27;;;5.63;;
6941;SDS011;3510;43.200;27.920;2023-04-25T17:11:36;6.37;;;5.93;;
6941;SDS011;3510;43.200;27.920;2023-04-25T17:14:03;6.77;;;5.13;;
6941;SDS011;3510;43.200;27.920;2023-04-25T17:16:33;7.33;;;6.40;;
6941;SDS011;3510;43.200;27.920;2023-04-25T17:19:01;6.33;;;5.73;;
6941;SDS011;3510;43.200;27.920;2023-04-25T17:21:28;12.60;;;6.60;;
6941;SDS011;3510;43.200;27.920;2023-04-25T17:23:58;7.83;;;7.20;;
6941;SDS011;3510;43.200;27.920;2023-04-25T17:26:25;10.17;;;6.27;;
6941;SDS011;3510;43.200;27.920;2023-04-25T17:28:52;4.60;;;4.30;;
6941;SDS011;3510;43.200;27.920;2023-04-25T17:31:19;6.30;;;5.27;;
6941;SDS011;3510;43.200;27.920;2023-04-25T17:33:47;8.13;;;6.13;;
6941;SDS011;3510;43.200;27.920;2023-04-25T17:36:15;5.53;;;5.10;;
6941;SDS011;3510;43.200;27.920;2023-04-25T17:38:43;14.47;;;9.13;;
6941;SDS011;3510;43.200;27.920;2023-04-25T17:41:12;10.80;;;9.63;;
6941;SDS011;3510;43.200;27.920;2023-04-25T17:43:39;9.30;;;8.40;;
6941;SDS011;3510;43.200;27.920;2023-04-25T17:46:06;7.73;;;7.10;;
6941;SDS011;3510;43.200;27.920;2023-04-25T17:48:33;9.23;;;8.40;;
6941;SDS011;3510;43.200;27.920;2023-04-25T17:51:00;10.83;;;9.67;;
6941;SDS011;3510;43.200;27.920;2023-04-25T17:53:27;12.10;;;8.33;;
6941;SDS011;3510;43.200;27.920;2023-04-25T17:55:55;9.13;;;8.23;;
6941;SDS011;3510;43.200;27.920;2023-04-25T17:58:23;9.57;;;8.70;;
6941;SDS011;3510;43.200;27.920;2023-04-25T18:00:50;10.27;;;9.37;;
6941;SDS011;3510;43.200;27.920;2023-04-25T18:03:18;10.03;;;8.67;;
6941;SDS011;3510;43.200;27.920;2023-04-25T18:05:47;14.23;;;10.53;;
6941;SDS011;3510;43.200;27.920;2023-04-25T18:08:15;9.93;;;8.83;;
6941;SDS011;3510;43.200;27.920;2023-04-25T18:10:42;12.57;;;10.23;;
6941;SDS011;3510;43.200;27.920;2023-04-25T18:13:10;13.00;;;10.03;;
6941;SDS011;3510;43.200;27.920;2023-04-25T18:15:40;9.10;;;8.30;;
6941;SDS011;3510;43.200;27.920;2023-04-25T18:18:07;9.23;;;8.23;;
6941;SDS011;3510;43.200;27.920;2023-04-25T18:20:43;10.03;;;9.07;;
6941;SDS011;3510;43.200;27.920;2023-04-25T18:23:11;11.70;;;9.17;;
6941;SDS011;3510;43.200;27.920;2023-04-25T18:25:38;12.77;;;11.17;;
6941;SDS011;3510;43.200;27.920;2023-04-25T18:28:05;14.87;;;11.50;;
6941;SDS011;3510;43.200;27.920;2023-04-25T18:30:33;20.67;;;13.37;;
6941;SDS011;3510;43.200;27.920;2023-04-25T18:33:03;17.37;;;13.60;;
6941;SDS011;3510;43.200;27.920;2023-04-25T18:35:30;13.97;;;11.57;;
6941;SDS011;3510;43.200;27.920;2023-04-25T18:37:57;13.63;;;12.23;;
6941;SDS011;3510;43.200;27.920;2023-04-25T18:40:24;11.10;;;9.40;;
6941;SDS011;3510;43.200;27.920;2023-04-25T18:42:50;11.33;;;10.30;;
6941;SDS011;3510;43.200;27.920;2023-04-25T18:45:19;12.20;;;10.40;;
6941;SDS011;3510;43.200;27.920;2023-04-25T18:47:46;11.97;;;10.50;;
6941;SDS011;3510;43.200;27.920;2023-04-25T18:50:16;11.07;;;9.63;;
6941;SDS011;3510;43.200;27.920;2023-04-25T18:52:44;11.43;;;9.97;;
6941;SDS011;3510;43.200;27.920;2023-04-25T18:55:11;23.30;;;9.53;;
6941;SDS011;3510;43.200;27.920;2023-04-25T18:57:38;9.83;;;8.80;;
6941;SDS011;3510;43.200;27.920;2023-04-25T19:00:05;10.47;;;9.43;;